ND18 weather

Public forecast

Using degrees Fahrenheit for public forecast. Weather courtesy of forecast.io.

Closest aviation weather report (METAR) to Judy Strip

Closest report is Minot Air Force Base, 7.8 nm (14.5 km) SW. Retrieved 2020/08/09 08:39 UTC (0 seconds ago):

KMIB 090839Z AUTO 18007KT 10SM -DZ FEW060 FEW080 OVC110 19/17 A2976 RMK AO2 DZB19E28DZB34E37DZB39 SLP075

Closest aviation forecast (TAF) to Judy Strip

Forecast is more than 12 hours old.

Closest forecast is Minot Air Force Base, 7.8 nm (14.5 km) SW. Retrieved 2020/08/07 20:19 UTC (2 days ago):

TAF KMIB 072011Z 0720/0823 16010G15KT 9999 SCT050 QNH2967INS TEMPO 0723/0724 VRB25G35KT 6000 -TSRA BKN050CB BECMG 0802/0803 30009KT 9999 SCT060 QNH2971INS BECMG 0808/0809 VRB06KT 9999 SCT060 QNH2990INS BECMG 0815/0816 27010G15KT 9999 FEW080 QNH2982INS TX32/0722Z TN14/0808Z